Terminal Aerodrome Forecast
Issued by NWS

Home | Current Version | Previous Version | Text Only | Print | Product List | Glossary On
Versions: 1 2 3 4 5 6 7 8 9 10 11 12 13 14 15 16 17 18 19 20 21 22 23 24 25 26
918
FTUS44 KOUN 221311 AAA
TAFCSM
TAF AMD
KCSM 221311Z 2213/2312 32011KT P6SM SCT030
     FM221500 34018G26KT P6SM BKN035
     FM222000 35016G24KT P6SM BKN040
     FM230000 01010KT P6SM SCT040=

USA.gov is the U.S. government's official web portal to all federal, state and local government web resources and services.